createdAt,value
2017-03-19T00:00:25.252Z,95.4
2017-03-19T00:01:27.595Z,95.4
2017-03-19T00:02:30.315Z,95.4
2017-03-19T00:03:32.919Z,95.4
2017-03-19T00:04:35.273Z,95.4
2017-03-19T00:05:38.099Z,95.3
2017-03-19T00:06:40.313Z,95.4
2017-03-19T00:07:43.169Z,95.3
2017-03-19T00:09:48.461Z,95.3
2017-03-19T00:10:50.815Z,95.3
2017-03-19T00:11:53.676Z,95.3
2017-03-19T00:12:56.024Z,95.3
2017-03-19T00:13:58.888Z,95.3
2017-03-19T00:15:01.494Z,95.3
2017-03-19T00:16:03.851Z,95.3
2017-03-19T00:17:06.704Z,95.3
2017-03-19T00:18:09.050Z,95.3
2017-03-19T00:19:11.905Z,95.3
2017-03-19T00:20:14.507Z,95.3
2017-03-19T00:21:16.725Z,95.3
2017-03-19T00:22:19.357Z,95.3
2017-03-19T00:23:22.209Z,95.3
2017-03-19T00:24:24.558Z,95.3
2017-03-19T00:25:27.576Z,95.3
2017-03-19T00:26:29.920Z,95.3
2017-03-19T00:27:32.321Z,95.3
2017-03-19T00:28:35.174Z,95.3
2017-03-19T00:29:37.528Z,95.3
2017-03-19T00:30:40.632Z,95.3
2017-03-19T00:31:42.536Z,95.3
2017-03-19T00:32:45.388Z,95.3
2017-03-19T00:33:47.739Z,95.3
2017-03-19T00:34:50.593Z,95.3
2017-03-19T00:35:53.252Z,95.3
2017-03-19T00:36:55.604Z,95.3
2017-03-19T00:37:58.455Z,95.3
2017-03-19T00:39:00.803Z,95.3
2017-03-19T00:40:03.657Z,95.3
2017-03-19T00:41:06.394Z,95.3
2017-03-19T00:42:08.605Z,95.3
2017-03-19T00:43:10.953Z,95.3
2017-03-19T00:44:13.812Z,95.3
2017-03-19T00:45:16.033Z,95.4
2017-03-19T00:46:19.140Z,95.4
2017-03-19T00:47:21.351Z,95.4
2017-03-19T00:48:24.068Z,95.4
2017-03-19T00:49:26.919Z,95.4
2017-03-19T00:50:29.271Z,95.4
2017-03-19T00:51:32.375Z,95.4
2017-03-19T00:52:34.228Z,95.4
2017-03-19T00:53:37.083Z,95.4
2017-03-19T00:54:39.521Z,95.4
2017-03-19T00:55:42.387Z,95.4
2017-03-19T00:56:45.039Z,95.4
2017-03-19T00:57:47.385Z,95.4
2017-03-19T00:58:49.739Z,95.4
2017-03-19T00:59:52.595Z,95.4
2017-03-19T01:00:54.936Z,95.4
2017-03-19T01:01:58.040Z,95.4
2017-03-19T01:03:00.384Z,95.4
2017-03-19T01:04:03.295Z,95.4
2017-03-19T01:05:05.642Z,95.5
2017-03-19T01:06:07.850Z,95.5
2017-03-19T01:08:13.411Z,95.5
2017-03-19T01:09:15.759Z,95.5
2017-03-19T01:10:18.607Z,95.5
2017-03-19T01:11:20.955Z,95.5
2017-03-19T01:12:23.306Z,95.5
2017-03-19T01:13:26.408Z,95.5
2017-03-19T01:14:28.794Z,95.5
2017-03-19T01:16:34.059Z,95.5
2017-03-19T01:17:36.443Z,95.5
2017-03-19T01:18:39.100Z,95.5
2017-03-19T01:19:41.449Z,95.5
2017-03-19T01:21:46.711Z,95.5
2017-03-19T01:22:49.432Z,95.5
2017-03-19T01:23:51.952Z,95.5
2017-03-19T01:24:54.309Z,95.5
2017-03-19T01:25:57.201Z,95.5
2017-03-19T01:26:59.552Z,95.5
2017-03-19T01:28:02.268Z,95.5
2017-03-19T01:29:05.159Z,95.5
2017-03-19T01:30:07.377Z,95.5
2017-03-19T01:31:09.723Z,95.5
2017-03-19T01:32:12.576Z,95.5
2017-03-19T01:33:14.929Z,95.5
2017-03-19T01:34:18.031Z,95.5
2017-03-19T01:35:20.382Z,95.5
2017-03-19T01:36:22.589Z,95.5
2017-03-19T01:37:25.438Z,95.5
2017-03-19T01:38:27.939Z,95.5
2017-03-19T01:39:30.592Z,95.5
2017-03-19T01:40:33.000Z,95.5
2017-03-19T01:41:35.726Z,95.5
2017-03-19T01:42:38.075Z,95.5
2017-03-19T01:43:40.799Z,95.5
2017-03-19T01:44:43.451Z,95.5
2017-03-19T01:45:45.803Z,95.5
2017-03-19T01:46:49.229Z,95.5
2017-03-19T01:47:51.073Z,95.5
2017-03-19T01:48:53.448Z,95.5
2017-03-19T01:49:56.613Z,95.5
2017-03-19T01:50:58.961Z,95.5
2017-03-19T01:52:01.308Z,95.5
2017-03-19T01:53:04.159Z,95.5
2017-03-19T01:54:06.521Z,95.5
2017-03-19T01:55:09.178Z,95.5
2017-03-19T01:56:11.524Z,95.5
2017-03-19T01:57:14.434Z,95.5
2017-03-19T01:58:16.796Z,95.5
2017-03-19T01:59:19.147Z,95.5
2017-03-19T02:00:22.502Z,95.5
2017-03-19T02:01:24.916Z,95.5
2017-03-19T02:02:27.268Z,95.5
2017-03-19T02:03:29.621Z,95.5
2017-03-19T02:04:32.480Z,95.5
2017-03-19T02:06:37.536Z,95.5
2017-03-19T02:07:39.753Z,95.5
2017-03-19T02:08:42.607Z,95.5
2017-03-19T02:09:44.959Z,95.5
2017-03-19T02:10:47.813Z,95.5
2017-03-19T02:11:50.462Z,95.5
2017-03-19T02:12:52.814Z,95.5
2017-03-19T02:13:55.538Z,95.5
2017-03-19T02:14:57.895Z,95.5
2017-03-19T02:17:03.330Z,95.5
2017-03-19T02:18:05.678Z,95.5
2017-03-19T02:19:08.537Z,95.5
2017-03-19T02:20:10.894Z,95.5
2017-03-19T02:21:13.239Z,95.5
2017-03-19T02:22:16.204Z,95.5
2017-03-19T02:23:18.420Z,95.5
2017-03-19T02:25:23.681Z,95.4
2017-03-19T02:26:26.530Z,95.4
2017-03-19T02:27:29.128Z,95.4
2017-03-19T02:28:31.477Z,95.4
2017-03-19T02:29:34.200Z,95.4
2017-03-19T02:30:36.283Z,95.4
2017-03-19T02:31:39.134Z,95.4
2017-03-19T02:32:42.286Z,95.4
2017-03-19T02:33:44.626Z,95.4
2017-03-19T02:34:46.974Z,95.4
2017-03-19T02:35:49.321Z,95.4
2017-03-19T02:36:52.176Z,95.4
2017-03-19T02:37:54.693Z,95.4
2017-03-19T02:38:56.939Z,95.4
2017-03-19T02:39:59.795Z,95.4
2017-03-19T02:41:02.654Z,95.4
2017-03-19T02:42:05.001Z,95.4
2017-03-19T02:43:07.651Z,95.4
2017-03-19T02:44:10.007Z,95.4
2017-03-19T02:45:12.858Z,95.4
2017-03-19T02:46:15.209Z,95.4
2017-03-19T02:47:17.924Z,95.4
2017-03-19T02:48:20.762Z,95.4
2017-03-19T02:49:23.114Z,95.4
2017-03-19T02:50:25.466Z,95.4
2017-03-19T02:51:28.181Z,95.4
2017-03-19T02:52:30.899Z,95.4
2017-03-19T02:53:33.550Z,95.4
2017-03-19T02:54:35.899Z,95.4
2017-03-19T02:55:38.702Z,95.4
2017-03-19T02:56:41.051Z,95.4
2017-03-19T02:57:43.905Z,95.4
2017-03-19T02:58:46.743Z,95.4
2017-03-19T02:59:48.593Z,95.4
2017-03-19T03:00:51.449Z,95.4
2017-03-19T03:01:53.800Z,95.4
2017-03-19T03:02:56.656Z,95.4
2017-03-19T03:05:02.723Z,95.4
2017-03-19T03:06:04.298Z,95.4
2017-03-19T03:07:06.640Z,95.4
2017-03-19T03:08:09.491Z,95.4
2017-03-19T03:09:11.850Z,95.4
2017-03-19T03:10:15.006Z,95.4
2017-03-19T03:11:17.358Z,95.4
2017-03-19T03:12:19.794Z,95.4
2017-03-19T03:13:22.511Z,95.4
2017-03-19T03:14:24.923Z,95.4
2017-03-19T03:15:27.580Z,95.5
2017-03-19T03:16:29.791Z,95.5
2017-03-19T03:17:32.507Z,95.5
2017-03-19T03:18:35.221Z,95.5
2017-03-19T03:19:37.575Z,95.5
2017-03-19T03:20:40.733Z,95.5
2017-03-19T03:21:42.946Z,95.5
2017-03-19T03:22:45.157Z,95.5
2017-03-19T03:23:48.449Z,95.5
2017-03-19T03:24:50.799Z,95.5
2017-03-19T03:25:53.399Z,95.5
2017-03-19T03:26:55.613Z,95.5
2017-03-19T03:27:58.463Z,95.5
2017-03-19T03:29:00.807Z,95.5
2017-03-19T03:30:03.689Z,95.5
2017-03-19T03:31:06.207Z,95.5
2017-03-19T03:32:08.929Z,95.5
2017-03-19T03:33:11.282Z,95.5
2017-03-19T03:34:13.633Z,95.5
2017-03-19T03:35:16.489Z,95.5
2017-03-19T03:36:19.086Z,95.5
2017-03-19T03:37:21.432Z,95.5
2017-03-19T03:38:24.337Z,95.5
2017-03-19T03:39:26.684Z,95.5
2017-03-19T03:40:29.056Z,95.5
2017-03-19T03:41:32.156Z,95.5
2017-03-19T03:42:34.505Z,95.5
2017-03-19T03:43:36.857Z,95.5
2017-03-19T03:44:39.705Z,95.5
2017-03-19T03:45:42.045Z,95.5
2017-03-19T03:46:45.062Z,95.5
2017-03-19T03:47:47.473Z,95.5
2017-03-19T03:48:49.682Z,95.5
2017-03-19T03:49:52.541Z,95.5
2017-03-19T03:50:54.888Z,95.5
2017-03-19T03:51:57.853Z,95.5
2017-03-19T03:53:00.064Z,95.5
2017-03-19T03:54:02.919Z,95.4
2017-03-19T03:55:05.264Z,95.4
2017-03-19T03:56:08.110Z,95.4
2017-03-19T03:57:10.756Z,95.5
2017-03-19T03:58:13.104Z,95.5
2017-03-19T03:59:15.455Z,95.5
2017-03-19T04:00:18.308Z,95.5
2017-03-19T04:01:20.518Z,95.5
2017-03-19T04:03:26.076Z,95.5
2017-03-19T04:04:28.437Z,95.5
2017-03-19T04:05:31.289Z,95.5
2017-03-19T04:06:33.365Z,95.5
2017-03-19T04:07:36.211Z,95.5
2017-03-19T04:08:38.813Z,95.5
2017-03-19T04:09:41.162Z,95.5
2017-03-19T04:10:44.007Z,95.5
2017-03-19T04:11:46.582Z,95.5
2017-03-19T04:12:48.929Z,95.5
2017-03-19T04:13:51.813Z,95.5
2017-03-19T04:14:54.167Z,95.5
2017-03-19T04:15:57.021Z,95.5
2017-03-19T04:16:59.370Z,95.5
2017-03-19T04:18:01.722Z,95.5
2017-03-19T04:19:04.875Z,95.5
2017-03-19T04:20:07.082Z,95.5
2017-03-19T04:21:09.660Z,95.5
2017-03-19T04:22:12.004Z,95.5
2017-03-19T04:23:14.851Z,95.5
2017-03-19T04:24:17.500Z,95.5
2017-03-19T04:25:19.846Z,95.5
2017-03-19T04:26:22.690Z,95.5
2017-03-19T04:27:24.891Z,95.5
2017-03-19T04:28:27.743Z,95.5
2017-03-19T04:29:30.352Z,95.5
2017-03-19T04:30:32.695Z,95.5
2017-03-19T04:31:35.549Z,95.5
2017-03-19T04:32:38.456Z,95.5
2017-03-19T04:33:40.339Z,95.5
2017-03-19T04:35:45.891Z,95.5
2017-03-19T04:36:48.231Z,95.5
2017-03-19T04:37:50.442Z,95.5
2017-03-19T04:38:53.318Z,95.5
2017-03-19T04:39:56.171Z,95.6
2017-03-19T04:40:58.822Z,95.6
2017-03-19T04:42:01.163Z,95.6
2017-03-19T04:43:03.507Z,95.6
2017-03-19T04:44:06.360Z,95.6
2017-03-19T04:45:08.733Z,95.6
2017-03-19T04:46:11.833Z,95.6
2017-03-19T04:47:13.730Z,95.6
2017-03-19T04:48:16.585Z,95.6
2017-03-19T04:49:18.979Z,95.6
2017-03-19T04:50:21.835Z,95.6
2017-03-19T04:51:24.480Z,95.6
2017-03-19T04:52:26.828Z,95.6
2017-03-19T04:53:29.174Z,95.6
2017-03-19T04:54:32.019Z,95.6
2017-03-19T04:55:34.371Z,95.6
2017-03-19T04:56:37.473Z,95.6
2017-03-19T04:57:39.612Z,95.6
2017-03-19T04:58:41.962Z,95.6
2017-03-19T04:59:44.820Z,95.6
2017-03-19T05:00:47.533Z,95.6
2017-03-19T05:01:50.044Z,95.6
2017-03-19T05:02:52.387Z,95.6
2017-03-19T05:03:55.245Z,95.6
2017-03-19T05:04:58.161Z,95.6
2017-03-19T05:05:59.999Z,95.6
2017-03-19T05:07:03.127Z,95.6
2017-03-19T05:08:05.345Z,95.6
2017-03-19T05:09:07.691Z,95.6
2017-03-19T05:10:10.537Z,95.6
2017-03-19T05:11:12.882Z,95.6
2017-03-19T05:12:16.028Z,95.6
2017-03-19T05:13:18.232Z,95.6
2017-03-19T05:14:20.594Z,95.6
2017-03-19T05:15:23.446Z,95.6
2017-03-19T05:16:25.789Z,95.6
2017-03-19T05:17:28.890Z,95.6
2017-03-19T05:18:31.238Z,95.6
2017-03-19T05:19:33.626Z,95.6
2017-03-19T05:20:35.974Z,95.6
2017-03-19T05:21:38.822Z,95.6
2017-03-19T05:22:41.419Z,95.6
2017-03-19T05:23:43.767Z,95.6
2017-03-19T05:24:46.615Z,95.6
2017-03-19T05:25:49.014Z,95.6
2017-03-19T05:26:51.361Z,95.6
2017-03-19T05:27:54.511Z,95.6
2017-03-19T05:28:56.728Z,95.6
2017-03-19T05:29:59.076Z,95.6
2017-03-19T05:31:01.925Z,95.6
2017-03-19T05:32:04.265Z,95.6
2017-03-19T05:33:07.414Z,95.6
2017-03-19T05:34:09.763Z,95.6
2017-03-19T05:35:12.108Z,95.6
2017-03-19T05:36:14.460Z,95.6
2017-03-19T05:37:17.307Z,95.6
2017-03-19T05:38:20.067Z,95.6
2017-03-19T05:39:22.279Z,95.6
2017-03-19T05:40:25.125Z,95.6
2017-03-19T05:41:27.473Z,95.6
2017-03-19T05:43:33.030Z,95.6
2017-03-19T05:44:35.375Z,95.6
2017-03-19T05:45:37.720Z,95.6
2017-03-19T05:46:40.572Z,95.6
2017-03-19T05:47:42.794Z,95.6
2017-03-19T05:48:45.892Z,95.6
2017-03-19T05:49:48.240Z,95.6
2017-03-19T05:50:50.582Z,95.6
2017-03-19T05:51:53.427Z,95.6
2017-03-19T05:52:55.640Z,95.6
2017-03-19T05:53:58.798Z,95.6
2017-03-19T05:55:01.143Z,95.6
2017-03-19T05:56:03.486Z,95.6
2017-03-19T05:57:05.831Z,95.6
2017-03-19T05:58:08.687Z,95.6
2017-03-19T05:59:11.337Z,95.5
2017-03-19T06:00:13.734Z,95.5
2017-03-19T06:01:15.945Z,95.5
2017-03-19T06:02:18.791Z,95.6
2017-03-19T06:03:21.643Z,95.6
2017-03-19T06:04:24.289Z,95.5
2017-03-19T06:05:26.620Z,95.6
2017-03-19T06:06:28.831Z,95.5
2017-03-19T06:07:31.551Z,95.5
2017-03-19T06:08:34.410Z,95.5
2017-03-19T06:09:37.065Z,95.5
2017-03-19T06:10:39.409Z,95.5
2017-03-19T06:11:42.257Z,95.6
2017-03-19T06:12:44.609Z,95.5
2017-03-19T06:13:46.957Z,95.5
2017-03-19T06:14:49.921Z,95.5
2017-03-19T06:15:52.261Z,95.5
2017-03-19T06:16:54.620Z,95.5
2017-03-19T06:17:57.476Z,95.5
2017-03-19T06:18:59.823Z,95.5
2017-03-19T06:20:02.806Z,95.5
2017-03-19T06:21:05.385Z,95.5
2017-03-19T06:22:07.600Z,95.5
2017-03-19T06:24:12.855Z,95.5
2017-03-19T06:25:15.499Z,95.5
2017-03-19T06:26:17.704Z,95.5
2017-03-19T06:27:20.412Z,95.5
2017-03-19T06:28:23.257Z,95.5
2017-03-19T06:29:25.614Z,95.5
2017-03-19T06:30:28.597Z,95.5
2017-03-19T06:31:30.934Z,95.5
2017-03-19T06:32:33.276Z,95.5
2017-03-19T06:33:35.997Z,95.5
2017-03-19T06:34:38.208Z,95.5
2017-03-19T06:35:41.360Z,95.5
2017-03-19T06:36:43.704Z,95.5
2017-03-19T06:37:46.049Z,95.5
2017-03-19T06:38:48.908Z,95.5
2017-03-19T06:39:51.614Z,95.5
2017-03-19T06:40:54.257Z,95.5
2017-03-19T06:41:56.662Z,95.5
2017-03-19T06:42:59.025Z,95.5
2017-03-19T06:44:01.877Z,95.5
2017-03-19T06:45:04.221Z,95.5
2017-03-19T06:46:07.317Z,95.5
2017-03-19T06:47:09.667Z,95.5
2017-03-19T06:48:12.012Z,95.5
2017-03-19T06:49:14.365Z,95.5
2017-03-19T06:50:17.211Z,95.5
2017-03-19T06:51:19.802Z,95.5
2017-03-19T06:52:22.514Z,95.5
2017-03-19T06:53:24.863Z,95.5
2017-03-19T06:54:27.077Z,95.5
2017-03-19T06:55:30.158Z,95.5
2017-03-19T06:56:32.805Z,95.5
2017-03-19T06:57:35.142Z,95.5
2017-03-19T06:58:37.487Z,95.5
2017-03-19T06:59:40.340Z,95.5
2017-03-19T07:00:42.683Z,95.5
2017-03-19T07:01:45.835Z,95.5
2017-03-19T07:02:48.180Z,95.5
2017-03-19T07:03:50.522Z,95.5
2017-03-19T07:04:53.239Z,95.5
2017-03-19T07:05:55.585Z,95.5
2017-03-19T07:06:58.596Z,95.5
2017-03-19T07:08:00.805Z,95.5
2017-03-19T07:09:03.657Z,95.5
2017-03-19T07:10:05.999Z,95.5
2017-03-19T07:11:08.844Z,95.5
2017-03-19T07:12:11.441Z,95.5
2017-03-19T07:13:13.657Z,95.5
2017-03-19T07:14:16.503Z,95.5
2017-03-19T07:15:18.716Z,95.5
2017-03-19T07:16:21.565Z,95.5
2017-03-19T07:17:24.157Z,95.5
2017-03-19T07:18:26.504Z,95.5
2017-03-19T07:19:29.350Z,95.5
2017-03-19T07:20:31.691Z,95.5
2017-03-19T07:21:34.534Z,95.5
2017-03-19T07:22:37.184Z,95.5
2017-03-19T07:23:39.531Z,95.5
2017-03-19T07:24:41.913Z,95.4
2017-03-19T07:25:44.762Z,95.4
2017-03-19T07:26:47.107Z,95.4
2017-03-19T07:27:50.201Z,95.4
2017-03-19T07:28:52.548Z,95.4
2017-03-19T07:29:54.760Z,95.4
2017-03-19T07:30:57.605Z,95.4
2017-03-19T07:31:59.945Z,95.4
2017-03-19T07:33:03.157Z,95.4
2017-03-19T07:34:05.504Z,95.4
2017-03-19T07:35:07.860Z,95.4
2017-03-19T07:36:10.203Z,95.4
2017-03-19T07:37:13.051Z,95.4
2017-03-19T07:38:15.647Z,95.4
2017-03-19T07:39:17.859Z,95.4
2017-03-19T07:40:20.709Z,95.3
2017-03-19T07:41:23.111Z,95.4
2017-03-19T07:43:28.671Z,95.3
2017-03-19T07:44:31.018Z,95.3
2017-03-19T07:45:33.865Z,95.3
2017-03-19T07:47:38.620Z,95.3
2017-03-19T07:48:41.640Z,95.3
2017-03-19T07:49:43.998Z,95.3
2017-03-19T07:50:46.345Z,95.3
2017-03-19T07:51:49.191Z,95.3
2017-03-19T07:52:51.535Z,95.3
2017-03-19T07:53:54.693Z,95.3
2017-03-19T07:54:56.903Z,95.3
2017-03-19T07:55:59.621Z,95.3
2017-03-19T07:57:01.962Z,95.3
2017-03-19T07:58:04.817Z,95.3
2017-03-19T07:59:07.420Z,95.2
2017-03-19T08:00:09.768Z,95.2
2017-03-19T08:01:12.114Z,95.2
2017-03-19T08:02:14.827Z,95.2
2017-03-19T08:03:17.681Z,95.2
2017-03-19T08:04:20.202Z,95.2
2017-03-19T08:05:22.417Z,95.2
2017-03-19T08:06:25.264Z,95.2
2017-03-19T08:07:27.610Z,95.1
2017-03-19T08:08:30.463Z,95.1
2017-03-19T08:09:33.116Z,95.1
2017-03-19T08:10:35.830Z,95.1
2017-03-19T08:12:40.593Z,95.1
2017-03-19T08:13:43.447Z,95
2017-03-19T08:14:46.042Z,95
2017-03-19T08:15:48.382Z,95
2017-03-19T08:16:51.097Z,95
2017-03-19T08:17:53.447Z,95
2017-03-19T08:18:56.301Z,95
2017-03-19T08:19:59.277Z,95
2017-03-19T08:22:03.890Z,95
2017-03-19T08:23:06.737Z,95
2017-03-19T08:24:08.955Z,95
2017-03-19T08:25:11.920Z,95
2017-03-19T08:26:14.273Z,95.1
2017-03-19T08:27:17.116Z,95
2017-03-19T08:28:19.374Z,95.1
2017-03-19T08:29:22.226Z,95.1
2017-03-19T08:30:24.873Z,95.1
2017-03-19T08:31:27.222Z,95.1
2017-03-19T08:32:30.073Z,95.1
2017-03-19T08:33:32.425Z,95.1
2017-03-19T08:34:34.781Z,95.1
2017-03-19T08:35:37.930Z,95.1
2017-03-19T08:36:40.280Z,95.1
2017-03-19T08:37:42.623Z,95.1
2017-03-19T08:38:45.475Z,95.1
2017-03-19T08:39:47.817Z,95.1
2017-03-19T08:40:50.923Z,95.1
2017-03-19T08:41:53.141Z,95.1
2017-03-19T08:42:55.497Z,95.1
2017-03-19T08:43:58.362Z,95.1
2017-03-19T08:45:00.709Z,95.1
2017-03-19T08:46:03.545Z,95.1
2017-03-19T08:47:05.756Z,95.1
2017-03-19T08:48:08.599Z,95.1
2017-03-19T08:49:11.184Z,95.1
2017-03-19T08:50:13.528Z,95.1
2017-03-19T08:51:16.735Z,95.1
2017-03-19T08:52:19.086Z,95.1
2017-03-19T08:53:21.501Z,95.1
2017-03-19T08:54:24.222Z,95.1
2017-03-19T08:55:26.575Z,95
2017-03-19T08:56:29.729Z,95
2017-03-19T08:57:31.583Z,95
2017-03-19T08:58:34.438Z,95
2017-03-19T08:59:36.782Z,95
2017-03-19T09:00:39.633Z,95
2017-03-19T09:01:42.277Z,95
2017-03-19T09:02:44.619Z,95
2017-03-19T09:03:47.467Z,95
2017-03-19T09:04:49.818Z,95
2017-03-19T09:05:52.669Z,95
2017-03-19T09:06:55.182Z,94.9
2017-03-19T09:07:57.531Z,94.9
2017-03-19T09:09:00.386Z,94.9
2017-03-19T09:10:02.739Z,94.9
2017-03-19T09:11:05.457Z,94.9
2017-03-19T09:12:08.337Z,94.9
2017-03-19T09:13:10.543Z,94.9
2017-03-19T09:14:13.391Z,94.9
2017-03-19T09:15:15.606Z,94.9
2017-03-19T09:16:18.186Z,94.9
2017-03-19T09:18:23.745Z,94.9
2017-03-19T09:19:26.091Z,94.9
2017-03-19T09:20:28.944Z,94.9
2017-03-19T09:21:31.153Z,94.9
2017-03-19T09:22:34.004Z,94.9
2017-03-19T09:23:36.721Z,95
2017-03-19T09:24:38.935Z,95
2017-03-19T09:25:41.780Z,95
2017-03-19T09:26:44.210Z,95
2017-03-19T09:27:47.066Z,95
2017-03-19T09:28:49.585Z,95
2017-03-19T09:29:51.934Z,95
2017-03-19T09:30:54.789Z,95
2017-03-19T09:31:57.134Z,95
2017-03-19T09:32:59.987Z,95
2017-03-19T09:34:02.636Z,95
2017-03-19T09:36:07.391Z,95
2017-03-19T09:37:10.235Z,95
2017-03-19T09:38:12.587Z,95
2017-03-19T09:39:15.558Z,95
2017-03-19T09:40:17.634Z,95
2017-03-19T09:41:20.486Z,95
2017-03-19T09:42:23.075Z,95
2017-03-19T09:43:25.434Z,95
2017-03-19T09:45:31.004Z,95
2017-03-19T09:46:33.943Z,95
2017-03-19T09:47:35.783Z,95
2017-03-19T09:48:38.632Z,95
2017-03-19T09:49:41.355Z,95
2017-03-19T09:50:43.999Z,95
2017-03-19T09:51:46.351Z,95
2017-03-19T09:52:48.699Z,95
2017-03-19T09:53:51.419Z,94.9
2017-03-19T09:54:54.317Z,94.9
2017-03-19T09:55:56.915Z,94.9
2017-03-19T09:56:59.124Z,94.9
2017-03-19T09:58:01.978Z,94.9
2017-03-19T09:59:04.323Z,94.9
2017-03-19T10:00:07.169Z,94.9
2017-03-19T10:01:09.820Z,94.9
2017-03-19T10:02:11.899Z,94.9
2017-03-19T10:03:14.747Z,94.9
2017-03-19T10:04:17.599Z,94.9
2017-03-19T10:05:19.947Z,94.9
2017-03-19T10:06:23.094Z,94.9
2017-03-19T10:07:25.308Z,94.9
2017-03-19T10:08:27.519Z,94.9
2017-03-19T10:09:30.377Z,94.9
2017-03-19T10:10:32.730Z,94.9
2017-03-19T10:11:35.887Z,94.9
2017-03-19T10:12:38.099Z,94.9
2017-03-19T10:13:40.818Z,94.9
2017-03-19T10:14:43.072Z,94.9
2017-03-19T10:15:45.916Z,94.8
2017-03-19T10:16:48.559Z,94.8
2017-03-19T10:17:50.899Z,94.8
2017-03-19T10:18:53.759Z,94.8
2017-03-19T10:19:56.475Z,94.8
2017-03-19T10:20:58.817Z,94.8
2017-03-19T10:22:01.426Z,94.8
2017-03-19T10:23:03.639Z,94.8
2017-03-19T10:24:06.351Z,94.8
2017-03-19T10:25:09.062Z,94.8
2017-03-19T10:26:11.776Z,94.8
2017-03-19T10:27:14.875Z,94.8
2017-03-19T10:28:17.225Z,94.8
2017-03-19T10:29:19.341Z,94.8
2017-03-19T10:30:22.194Z,94.8
2017-03-19T10:31:24.538Z,94.9
2017-03-19T10:32:27.621Z,94.9
2017-03-19T10:33:29.978Z,94.9
2017-03-19T10:34:32.327Z,94.9
2017-03-19T10:35:35.043Z,94.9
2017-03-19T10:36:37.756Z,94.8
2017-03-19T10:37:40.406Z,94.9
2017-03-19T10:38:42.622Z,94.9
2017-03-19T10:39:45.335Z,94.9
2017-03-19T10:40:48.183Z,94.9
2017-03-19T10:41:50.530Z,94.9
2017-03-19T10:43:56.034Z,94.9
2017-03-19T10:44:58.382Z,94.9
2017-03-19T10:46:01.229Z,94.9
2017-03-19T10:47:03.441Z,94.9
2017-03-19T10:48:06.162Z,94.9
2017-03-19T10:49:09.268Z,94.9
2017-03-19T10:50:11.478Z,94.9
2017-03-19T10:51:13.843Z,94.9
2017-03-19T10:52:16.561Z,94.9
2017-03-19T10:53:19.412Z,94.9
2017-03-19T10:54:22.065Z,94.9
2017-03-19T10:55:24.411Z,94.9
2017-03-19T10:56:27.261Z,94.8
2017-03-19T10:57:29.471Z,94.8
2017-03-19T10:58:32.322Z,94.8
2017-03-19T10:59:34.917Z,94.8
2017-03-19T11:00:37.265Z,94.9
2017-03-19T11:01:40.113Z,94.9
2017-03-19T11:03:45.373Z,94.9
2017-03-19T11:04:47.851Z,94.9
2017-03-19T11:05:50.197Z,94.9
2017-03-19T11:06:53.623Z,94.9
2017-03-19T11:07:55.468Z,94.9
2017-03-19T11:08:58.320Z,94.9
2017-03-19T11:10:00.971Z,94.9
2017-03-19T11:11:03.318Z,94.9
2017-03-19T11:12:06.025Z,94.9
2017-03-19T11:13:08.373Z,94.9
2017-03-19T11:14:11.219Z,94.9
2017-03-19T11:15:13.867Z,94.9
2017-03-19T11:16:16.591Z,94.9
2017-03-19T11:17:19.012Z,94.9
2017-03-19T11:18:21.355Z,94.9
2017-03-19T11:19:24.075Z,94.9
2017-03-19T11:20:27.226Z,94.9
2017-03-19T11:21:29.568Z,94.9
2017-03-19T11:22:31.909Z,94.9
2017-03-19T11:23:34.756Z,94.9
2017-03-19T11:24:37.105Z,94.9
2017-03-19T11:26:42.663Z,94.9
2017-03-19T11:28:47.790Z,94.8
2017-03-19T11:29:50.137Z,94.8
2017-03-19T11:30:52.900Z,94.8
2017-03-19T11:31:55.547Z,94.8
2017-03-19T11:32:57.890Z,94.8
2017-03-19T11:34:00.776Z,94.8
2017-03-19T11:35:02.986Z,94.8
2017-03-19T11:36:05.699Z,94.8
2017-03-19T11:38:11.205Z,94.8
2017-03-19T11:39:13.563Z,94.8
2017-03-19T11:40:16.417Z,94.8
2017-03-19T11:41:18.760Z,94.8
2017-03-19T11:42:21.607Z,94.8
2017-03-19T11:43:24.206Z,94.8
2017-03-19T11:44:26.415Z,94.8
2017-03-19T11:45:29.258Z,94.8
2017-03-19T11:46:31.475Z,94.8
2017-03-19T11:47:34.318Z,94.7
2017-03-19T11:48:37.471Z,94.7
2017-03-19T11:50:42.417Z,94.7
2017-03-19T11:51:45.130Z,94.7
2017-03-19T11:52:47.482Z,94.7
2017-03-19T11:53:50.637Z,94.7
2017-03-19T11:54:52.483Z,94.6
2017-03-19T11:55:55.889Z,94.6
2017-03-19T11:56:57.730Z,94.6
2017-03-19T11:58:00.442Z,94.6
2017-03-19T11:59:03.545Z,94.6
2017-03-19T12:00:05.896Z,94.6
2017-03-19T12:01:08.249Z,94.6
2017-03-19T12:02:11.101Z,94.5
2017-03-19T12:03:13.322Z,94.5
2017-03-19T12:04:16.343Z,94.4
2017-03-19T12:05:18.688Z,94.4
2017-03-19T12:06:21.535Z,94.4
2017-03-19T12:07:23.877Z,94.4
2017-03-19T12:08:26.593Z,94.3
2017-03-19T12:09:29.707Z,94.3
2017-03-19T12:10:32.046Z,94.3
2017-03-19T12:11:34.456Z,94.2
2017-03-19T12:12:37.310Z,94.2
2017-03-19T12:13:39.656Z,94.2
2017-03-19T12:14:42.623Z,94.1
2017-03-19T12:15:44.971Z,94.1
2017-03-19T12:16:47.697Z,94.1
2017-03-19T12:17:50.041Z,94.1
2017-03-19T12:18:52.761Z,94
2017-03-19T12:19:55.917Z,94
2017-03-19T12:20:58.269Z,94
2017-03-19T12:22:00.612Z,94
2017-03-19T12:23:03.464Z,94
2017-03-19T12:24:05.668Z,94
2017-03-19T12:25:08.733Z,94
2017-03-19T12:26:11.450Z,93.9
2017-03-19T12:27:13.661Z,93.9
2017-03-19T12:28:16.508Z,93.9
2017-03-19T12:29:19.229Z,93.9
2017-03-19T12:30:21.744Z,93.8
2017-03-19T12:32:27.003Z,93.8
2017-03-19T12:33:29.858Z,93.8
2017-03-19T12:34:32.206Z,93.7
2017-03-19T12:35:35.229Z,93.7
2017-03-19T12:36:37.576Z,93.7
2017-03-19T12:37:40.425Z,93.6
2017-03-19T12:38:42.774Z,93.6
2017-03-19T12:39:45.657Z,93.6
2017-03-19T12:40:48.301Z,93.6
2017-03-19T12:41:50.645Z,93.6
2017-03-19T12:42:53.496Z,93.6
2017-03-19T12:43:55.710Z,93.6
2017-03-19T12:44:58.559Z,93.6
2017-03-19T12:46:01.741Z,93.6
2017-03-19T12:47:03.581Z,93.6
2017-03-19T12:48:06.427Z,93.6
2017-03-19T12:49:09.279Z,93.6
2017-03-19T12:50:11.626Z,93.6
2017-03-19T12:51:14.646Z,93.6
2017-03-19T12:52:16.991Z,93.6
2017-03-19T12:53:19.842Z,93.6
2017-03-19T12:54:22.051Z,93.6
2017-03-19T12:55:24.906Z,93.6
2017-03-19T12:56:28.603Z,93.6
2017-03-19T12:57:29.945Z,93.5
2017-03-19T12:58:32.802Z,93.5
2017-03-19T12:59:35.656Z,93.5
2017-03-19T13:00:37.729Z,93.5
2017-03-19T13:01:40.749Z,93.5
2017-03-19T13:02:43.462Z,93.4
2017-03-19T13:03:45.809Z,93.4
2017-03-19T13:04:48.657Z,93.4
2017-03-19T13:05:51.012Z,93.4
2017-03-19T13:06:54.109Z,93.4
2017-03-19T13:07:56.455Z,93.4
2017-03-19T13:08:59.304Z,93.3
2017-03-19T13:10:01.644Z,93.4
2017-03-19T13:11:04.492Z,93.4
2017-03-19T13:12:07.141Z,93.4
2017-03-19T13:13:10.259Z,93.4
2017-03-19T13:14:11.967Z,93.4
2017-03-19T13:15:14.813Z,93.4
2017-03-19T13:16:17.661Z,93.4
2017-03-19T13:16:48.302Z,93.4
2017-03-19T13:17:20.756Z,93.4
2017-03-19T13:18:22.967Z,93.4
2017-03-19T13:19:25.316Z,93.4
2017-03-19T13:20:28.031Z,93.4
2017-03-19T13:21:30.876Z,93.4
2017-03-19T13:22:33.473Z,93.5
2017-03-19T13:23:35.826Z,93.5
2017-03-19T13:24:38.692Z,93.5
2017-03-19T13:25:41.540Z,93.5
2017-03-19T13:26:43.749Z,93.5
2017-03-19T13:27:46.713Z,93.5
2017-03-19T13:28:49.296Z,93.5
2017-03-19T13:29:52.146Z,93.5
2017-03-19T13:30:54.495Z,93.5
2017-03-19T13:31:57.344Z,93.5
2017-03-19T13:32:59.988Z,93.5
2017-03-19T13:34:02.569Z,93.5
2017-03-19T13:35:04.910Z,93.5
2017-03-19T13:36:07.758Z,93.5
2017-03-19T13:37:10.477Z,93.4
2017-03-19T13:38:12.994Z,93.4
2017-03-19T13:39:15.842Z,93.4
2017-03-19T13:40:18.188Z,93.5
2017-03-19T13:42:23.442Z,93.5
2017-03-19T13:43:26.590Z,93.5
2017-03-19T13:44:28.936Z,93.5
2017-03-19T13:45:31.787Z,93.5
2017-03-19T13:46:33.996Z,93.5
2017-03-19T13:47:36.845Z,93.5
2017-03-19T13:48:39.859Z,93.5
2017-03-19T13:49:42.210Z,93.6
2017-03-19T13:50:44.551Z,93.6
2017-03-19T13:51:47.400Z,93.6
2017-03-19T13:52:50.252Z,93.6
2017-03-19T13:53:52.716Z,93.6
2017-03-19T13:54:55.577Z,93.6
2017-03-19T13:55:57.921Z,93.6
2017-03-19T13:57:00.804Z,93.6
2017-03-19T13:58:03.160Z,93.6
2017-03-19T13:59:06.275Z,93.6
2017-03-19T14:00:09.189Z,93.6
2017-03-19T14:01:11.030Z,93.6
2017-03-19T14:02:13.884Z,93.5
2017-03-19T14:03:16.598Z,93.5
2017-03-19T14:04:19.561Z,93.5
2017-03-19T14:05:21.906Z,93.4
2017-03-19T14:06:24.620Z,93.4
2017-03-19T14:07:26.969Z,93.4
2017-03-19T14:08:29.820Z,93.4
2017-03-19T14:09:32.281Z,93.4
2017-03-19T14:10:34.992Z,93.3
2017-03-19T14:11:37.839Z,93.3
2017-03-19T14:12:40.187Z,93.3
2017-03-19T14:13:43.044Z,93.3
2017-03-19T14:14:45.520Z,93.3
2017-03-19T14:15:48.366Z,93.2
2017-03-19T14:16:50.718Z,93.2
2017-03-19T14:17:53.570Z,93.2
2017-03-19T14:18:56.287Z,93.2
2017-03-19T14:19:58.964Z,93.2
2017-03-19T14:21:01.185Z,93.2
2017-03-19T14:22:03.907Z,93.2
2017-03-19T14:23:06.756Z,93.2
2017-03-19T14:24:09.616Z,93.2